sensor_id;sensor_type;location;lat;lon;timestamp;temperature;humidity
43581;DHT22;29175;51.030;4.606;2023-06-14T00:00:39;20.00;85.30
43581;DHT22;29175;51.030;4.606;2023-06-14T00:03:09;20.00;84.50
43581;DHT22;29175;51.030;4.606;2023-06-14T00:05:37;20.00;84.70
43581;DHT22;29175;51.030;4.606;2023-06-14T00:08:09;20.00;84.20
43581;DHT22;29175;51.030;4.606;2023-06-14T00:10:35;19.90;85.10
43581;DHT22;29175;51.030;4.606;2023-06-14T00:13:02;19.80;85.00
43581;DHT22;29175;51.030;4.606;2023-06-14T00:15:30;19.70;84.80
43581;DHT22;29175;51.030;4.606;2023-06-14T00:18:00;19.80;84.70
43581;DHT22;29175;51.030;4.606;2023-06-14T00:20:30;19.60;84.50
43581;DHT22;29175;51.030;4.606;2023-06-14T00:22:59;19.60;85.00
43581;DHT22;29175;51.030;4.606;2023-06-14T00:25:25;19.60;85.30
43581;DHT22;29175;51.030;4.606;2023-06-14T00:27:52;19.50;85.90
43581;DHT22;29175;51.030;4.606;2023-06-14T00:30:18;19.50;86.80
43581;DHT22;29175;51.030;4.606;2023-06-14T00:32:44;19.50;86.00
43581;DHT22;29175;51.030;4.606;2023-06-14T00:35:11;19.40;85.70
43581;DHT22;29175;51.030;4.606;2023-06-14T00:37:37;19.50;85.70
43581;DHT22;29175;51.030;4.606;2023-06-14T00:40:03;19.40;86.60
43581;DHT22;29175;51.030;4.606;2023-06-14T00:42:30;19.40;87.20
43581;DHT22;29175;51.030;4.606;2023-06-14T00:44:56;19.30;88.10
43581;DHT22;29175;51.030;4.606;2023-06-14T00:47:22;19.20;88.50
43581;DHT22;29175;51.030;4.606;2023-06-14T00:49:48;19.10;88.50
43581;DHT22;29175;51.030;4.606;2023-06-14T00:52:15;19.00;88.10
43581;DHT22;29175;51.030;4.606;2023-06-14T00:54:42;19.00;88.60
43581;DHT22;29175;51.030;4.606;2023-06-14T00:57:09;19.10;86.80
43581;DHT22;29175;51.030;4.606;2023-06-14T00:59:41;19.10;87.60
43581;DHT22;29175;51.030;4.606;2023-06-14T01:02:08;19.20;88.00
43581;DHT22;29175;51.030;4.606;2023-06-14T01:04:33;19.20;87.70
43581;DHT22;29175;51.030;4.606;2023-06-14T01:15:12;19.00;88.10
43581;DHT22;29175;51.030;4.606;2023-06-14T01:17:39;19.10;88.00
43581;DHT22;29175;51.030;4.606;2023-06-14T01:20:12;19.10;86.50
43581;DHT22;29175;51.030;4.606;2023-06-14T01:22:50;19.10;87.60
43581;DHT22;29175;51.030;4.606;2023-06-14T01:25:17;19.10;87.50
43581;DHT22;29175;51.030;4.606;2023-06-14T01:27:47;19.10;87.10
43581;DHT22;29175;51.030;4.606;2023-06-14T01:30:14;19.10;87.90
43581;DHT22;29175;51.030;4.606;2023-06-14T01:32:40;19.10;87.50
43581;DHT22;29175;51.030;4.606;2023-06-14T01:35:06;19.10;87.40
43581;DHT22;29175;51.030;4.606;2023-06-14T01:37:32;18.90;87.60
43581;DHT22;29175;51.030;4.606;2023-06-14T01:39:59;18.90;87.50
43581;DHT22;29175;51.030;4.606;2023-06-14T01:42:25;19.00;88.30
43581;DHT22;29175;51.030;4.606;2023-06-14T01:44:53;18.90;88.20
43581;DHT22;29175;51.030;4.606;2023-06-14T01:47:19;18.90;88.00
43581;DHT22;29175;51.030;4.606;2023-06-14T01:49:46;18.90;88.20
43581;DHT22;29175;51.030;4.606;2023-06-14T01:52:12;18.80;87.80
43581;DHT22;29175;51.030;4.606;2023-06-14T01:54:38;18.80;87.30
43581;DHT22;29175;51.030;4.606;2023-06-14T01:57:08;18.70;89.00
43581;DHT22;29175;51.030;4.606;2023-06-14T01:59:34;18.70;89.40
43581;DHT22;29175;51.030;4.606;2023-06-14T02:02:02;18.70;88.50
43581;DHT22;29175;51.030;4.606;2023-06-14T02:04:29;18.70;88.40
43581;DHT22;29175;51.030;4.606;2023-06-14T02:06:55;18.60;88.50
43581;DHT22;29175;51.030;4.606;2023-06-14T02:09:21;18.50;88.90
43581;DHT22;29175;51.030;4.606;2023-06-14T02:11:46;18.60;89.40
43581;DHT22;29175;51.030;4.606;2023-06-14T02:14:12;18.60;88.90
43581;DHT22;29175;51.030;4.606;2023-06-14T02:16:38;18.50;89.60
43581;DHT22;29175;51.030;4.606;2023-06-14T02:19:05;18.50;89.50
43581;DHT22;29175;51.030;4.606;2023-06-14T02:21:31;18.40;89.60
43581;DHT22;29175;51.030;4.606;2023-06-14T02:23:57;18.40;89.80
43581;DHT22;29175;51.030;4.606;2023-06-14T02:26:23;18.40;89.40
43581;DHT22;29175;51.030;4.606;2023-06-14T02:28:49;18.40;89.30
43581;DHT22;29175;51.030;4.606;2023-06-14T02:31:15;18.40;89.20
43581;DHT22;29175;51.030;4.606;2023-06-14T02:33:41;18.30;89.30
43581;DHT22;29175;51.030;4.606;2023-06-14T02:36:07;18.10;88.90
43581;DHT22;29175;51.030;4.606;2023-06-14T02:38:33;18.00;90.40
43581;DHT22;29175;51.030;4.606;2023-06-14T02:40:58;18.00;90.00
43581;DHT22;29175;51.030;4.606;2023-06-14T02:43:25;18.10;90.00
43581;DHT22;29175;51.030;4.606;2023-06-14T02:45:51;18.30;89.30
43581;DHT22;29175;51.030;4.606;2023-06-14T02:48:17;18.20;89.50
43581;DHT22;29175;51.030;4.606;2023-06-14T02:50:43;18.20;89.20
43581;DHT22;29175;51.030;4.606;2023-06-14T02:53:08;18.20;88.70
43581;DHT22;29175;51.030;4.606;2023-06-14T02:55:34;18.20;89.10
43581;DHT22;29175;51.030;4.606;2023-06-14T02:58:05;18.20;88.70
43581;DHT22;29175;51.030;4.606;2023-06-14T03:00:31;18.20;88.90
43581;DHT22;29175;51.030;4.606;2023-06-14T03:02:57;18.30;88.60
43581;DHT22;29175;51.030;4.606;2023-06-14T03:05:22;18.30;89.00
43581;DHT22;29175;51.030;4.606;2023-06-14T03:07:49;18.30;88.40
43581;DHT22;29175;51.030;4.606;2023-06-14T03:10:15;18.20;88.90
43581;DHT22;29175;51.030;4.606;2023-06-14T03:12:42;18.30;88.00
43581;DHT22;29175;51.030;4.606;2023-06-14T03:15:08;18.30;88.20
43581;DHT22;29175;51.030;4.606;2023-06-14T03:17:34;18.30;87.80
43581;DHT22;29175;51.030;4.606;2023-06-14T03:20:01;18.30;88.10
43581;DHT22;29175;51.030;4.606;2023-06-14T03:22:28;18.20;88.40
43581;DHT22;29175;51.030;4.606;2023-06-14T03:24:54;18.30;88.50
43581;DHT22;29175;51.030;4.606;2023-06-14T03:27:20;18.00;88.80
43581;DHT22;29175;51.030;4.606;2023-06-14T03:29:46;18.10;88.10
43581;DHT22;29175;51.030;4.606;2023-06-14T03:32:11;18.10;88.30
43581;DHT22;29175;51.030;4.606;2023-06-14T03:34:37;18.20;88.90
43581;DHT22;29175;51.030;4.606;2023-06-14T03:37:06;18.20;88.30
43581;DHT22;29175;51.030;4.606;2023-06-14T03:39:32;18.20;88.40
43581;DHT22;29175;51.030;4.606;2023-06-14T03:41:58;18.20;88.20
43581;DHT22;29175;51.030;4.606;2023-06-14T03:44:24;18.10;89.30
43581;DHT22;29175;51.030;4.606;2023-06-14T03:46:52;18.00;89.10
43581;DHT22;29175;51.030;4.606;2023-06-14T03:49:17;18.10;88.60
43581;DHT22;29175;51.030;4.606;2023-06-14T03:51:43;18.10;88.90
43581;DHT22;29175;51.030;4.606;2023-06-14T03:54:09;18.20;88.20
43581;DHT22;29175;51.030;4.606;2023-06-14T03:56:34;18.30;88.40
43581;DHT22;29175;51.030;4.606;2023-06-14T03:59:01;18.30;88.40
43581;DHT22;29175;51.030;4.606;2023-06-14T04:01:28;18.30;88.80
43581;DHT22;29175;51.030;4.606;2023-06-14T04:03:56;18.10;88.70
43581;DHT22;29175;51.030;4.606;2023-06-14T04:06:22;18.20;89.20
43581;DHT22;29175;51.030;4.606;2023-06-14T04:08:50;18.20;88.50
43581;DHT22;29175;51.030;4.606;2023-06-14T04:11:16;18.20;89.30
43581;DHT22;29175;51.030;4.606;2023-06-14T04:13:42;18.20;89.50
43581;DHT22;29175;51.030;4.606;2023-06-14T04:16:07;18.30;90.10
43581;DHT22;29175;51.030;4.606;2023-06-14T04:18:33;18.30;90.10
43581;DHT22;29175;51.030;4.606;2023-06-14T04:20:59;18.30;90.10
43581;DHT22;29175;51.030;4.606;2023-06-14T04:23:25;18.30;90.20
43581;DHT22;29175;51.030;4.606;2023-06-14T04:25:53;18.40;89.80
43581;DHT22;29175;51.030;4.606;2023-06-14T04:28:19;18.40;89.40
43581;DHT22;29175;51.030;4.606;2023-06-14T04:30:45;18.40;90.10
43581;DHT22;29175;51.030;4.606;2023-06-14T04:33:12;18.30;90.10
43581;DHT22;29175;51.030;4.606;2023-06-14T04:35:39;18.40;90.40
43581;DHT22;29175;51.030;4.606;2023-06-14T04:38:06;18.50;90.70
43581;DHT22;29175;51.030;4.606;2023-06-14T04:40:35;18.40;90.50
43581;DHT22;29175;51.030;4.606;2023-06-14T04:43:08;18.60;90.50
43581;DHT22;29175;51.030;4.606;2023-06-14T04:45:34;18.50;90.50
43581;DHT22;29175;51.030;4.606;2023-06-14T04:48:02;18.60;90.40
43581;DHT22;29175;51.030;4.606;2023-06-14T04:50:28;18.60;90.60
43581;DHT22;29175;51.030;4.606;2023-06-14T04:52:58;18.70;90.40
43581;DHT22;29175;51.030;4.606;2023-06-14T04:55:25;18.80;90.40
43581;DHT22;29175;51.030;4.606;2023-06-14T04:57:51;18.80;90.40
43581;DHT22;29175;51.030;4.606;2023-06-14T05:00:20;19.00;90.30
43581;DHT22;29175;51.030;4.606;2023-06-14T05:02:45;19.20;90.20
43581;DHT22;29175;51.030;4.606;2023-06-14T05:05:12;19.40;90.00
43581;DHT22;29175;51.030;4.606;2023-06-14T05:07:38;19.80;90.00
43581;DHT22;29175;51.030;4.606;2023-06-14T05:10:05;19.80;89.40
43581;DHT22;29175;51.030;4.606;2023-06-14T05:12:31;20.20;87.90
43581;DHT22;29175;51.030;4.606;2023-06-14T05:14:57;20.40;87.90
43581;DHT22;29175;51.030;4.606;2023-06-14T05:17:24;20.40;87.20
43581;DHT22;29175;51.030;4.606;2023-06-14T05:19:50;20.30;84.80
43581;DHT22;29175;51.030;4.606;2023-06-14T05:22:16;20.20;87.10
43581;DHT22;29175;51.030;4.606;2023-06-14T05:24:41;20.10;86.80
43581;DHT22;29175;51.030;4.606;2023-06-14T05:27:07;20.00;85.80
43581;DHT22;29175;51.030;4.606;2023-06-14T05:29:33;20.00;89.30
43581;DHT22;29175;51.030;4.606;2023-06-14T05:31:59;20.20;88.10
43581;DHT22;29175;51.030;4.606;2023-06-14T05:34:25;20.30;88.50
43581;DHT22;29175;51.030;4.606;2023-06-14T05:36:51;20.50;88.60
43581;DHT22;29175;51.030;4.606;2023-06-14T05:39:16;20.20;85.20
43581;DHT22;29175;51.030;4.606;2023-06-14T05:41:42;20.30;88.10
43581;DHT22;29175;51.030;4.606;2023-06-14T05:44:08;20.00;84.50
43581;DHT22;29175;51.030;4.606;2023-06-14T05:46:34;19.70;85.90
43581;DHT22;29175;51.030;4.606;2023-06-14T05:49:00;19.80;88.90
43581;DHT22;29175;51.030;4.606;2023-06-14T05:51:26;20.00;85.00
43581;DHT22;29175;51.030;4.606;2023-06-14T05:53:52;20.40;84.20
43581;DHT22;29175;51.030;4.606;2023-06-14T05:56:18;20.40;88.30
43581;DHT22;29175;51.030;4.606;2023-06-14T05:58:44;20.50;87.80
43581;DHT22;29175;51.030;4.606;2023-06-14T06:01:10;20.40;86.00
43581;DHT22;29175;51.030;4.606;2023-06-14T06:03:37;20.50;84.90
43581;DHT22;29175;51.030;4.606;2023-06-14T06:06:02;20.40;83.50
43581;DHT22;29175;51.030;4.606;2023-06-14T06:08:29;20.60;83.40
43581;DHT22;29175;51.030;4.606;2023-06-14T06:10:55;20.60;82.50
43581;DHT22;29175;51.030;4.606;2023-06-14T06:13:21;20.80;83.20
43581;DHT22;29175;51.030;4.606;2023-06-14T06:15:47;20.80;83.20
43581;DHT22;29175;51.030;4.606;2023-06-14T06:18:12;21.20;83.10
43581;DHT22;29175;51.030;4.606;2023-06-14T06:20:38;20.90;83.00
43581;DHT22;29175;51.030;4.606;2023-06-14T06:23:04;21.50;84.70
43581;DHT22;29175;51.030;4.606;2023-06-14T06:25:29;21.60;81.60
43581;DHT22;29175;51.030;4.606;2023-06-14T06:27:57;21.90;80.50
43581;DHT22;29175;51.030;4.606;2023-06-14T06:30:23;22.50;81.50
43581;DHT22;29175;51.030;4.606;2023-06-14T06:32:48;23.20;80.30
43581;DHT22;29175;51.030;4.606;2023-06-14T06:35:14;23.50;77.90
43581;DHT22;29175;51.030;4.606;2023-06-14T06:37:41;26.00;75.40
43581;DHT22;29175;51.030;4.606;2023-06-14T06:40:07;28.30;67.10
43581;DHT22;29175;51.030;4.606;2023-06-14T06:42:34;29.10;63.50
43581;DHT22;29175;51.030;4.606;2023-06-14T06:45:00;30.70;63.10
43581;DHT22;29175;51.030;4.606;2023-06-14T06:47:26;30.90;59.70
43581;DHT22;29175;51.030;4.606;2023-06-14T06:49:51;31.60;58.60
43581;DHT22;29175;51.030;4.606;2023-06-14T06:52:17;32.10;57.40
43581;DHT22;29175;51.030;4.606;2023-06-14T06:54:43;32.00;57.10
43581;DHT22;29175;51.030;4.606;2023-06-14T06:57:09;31.70;58.70
43581;DHT22;29175;51.030;4.606;2023-06-14T06:59:36;33.20;58.10
43581;DHT22;29175;51.030;4.606;2023-06-14T07:02:02;34.00;56.30
43581;DHT22;29175;51.030;4.606;2023-06-14T07:04:28;34.60;56.20
43581;DHT22;29175;51.030;4.606;2023-06-14T07:06:54;34.00;55.60
43581;DHT22;29175;51.030;4.606;2023-06-14T07:09:19;34.80;56.90
43581;DHT22;29175;51.030;4.606;2023-06-14T07:11:47;35.30;54.70
43581;DHT22;29175;51.030;4.606;2023-06-14T07:14:13;35.30;54.60
43581;DHT22;29175;51.030;4.606;2023-06-14T07:16:39;35.50;54.40
43581;DHT22;29175;51.030;4.606;2023-06-14T07:19:04;35.60;53.50
43581;DHT22;29175;51.030;4.606;2023-06-14T07:21:30;35.50;53.40
43581;DHT22;29175;51.030;4.606;2023-06-14T07:23:56;35.60;54.40
43581;DHT22;29175;51.030;4.606;2023-06-14T07:26:22;34.10;54.10
43581;DHT22;29175;51.030;4.606;2023-06-14T07:28:49;34.40;54.90
43581;DHT22;29175;51.030;4.606;2023-06-14T07:31:15;35.40;53.70
43581;DHT22;29175;51.030;4.606;2023-06-14T07:33:42;36.30;53.90
43581;DHT22;29175;51.030;4.606;2023-06-14T07:36:08;35.80;53.50
43581;DHT22;29175;51.030;4.606;2023-06-14T07:38:34;36.40;53.30
43581;DHT22;29175;51.030;4.606;2023-06-14T07:41:00;37.40;52.70
43581;DHT22;29175;51.030;4.606;2023-06-14T07:43:26;37.90;52.30
43581;DHT22;29175;51.030;4.606;2023-06-14T07:45:52;38.30;53.50
43581;DHT22;29175;51.030;4.606;2023-06-14T07:48:18;38.50;53.40
43581;DHT22;29175;51.030;4.606;2023-06-14T07:50:44;38.70;52.20
43581;DHT22;29175;51.030;4.606;2023-06-14T07:53:10;38.60;52.60
43581;DHT22;29175;51.030;4.606;2023-06-14T07:55:36;37.50;52.30
43581;DHT22;29175;51.030;4.606;2023-06-14T07:58:06;37.50;53.00
43581;DHT22;29175;51.030;4.606;2023-06-14T08:00:32;37.70;52.90
43581;DHT22;29175;51.030;4.606;2023-06-14T08:02:58;37.80;53.20
43581;DHT22;29175;51.030;4.606;2023-06-14T08:05:27;37.10;53.40
43581;DHT22;29175;51.030;4.606;2023-06-14T08:07:53;37.00;53.70
43581;DHT22;29175;51.030;4.606;2023-06-14T08:10:20;37.90;53.00
43581;DHT22;29175;51.030;4.606;2023-06-14T08:12:46;37.50;52.60
43581;DHT22;29175;51.030;4.606;2023-06-14T08:15:11;38.20;52.50
43581;DHT22;29175;51.030;4.606;2023-06-14T08:17:37;38.20;52.20
43581;DHT22;29175;51.030;4.606;2023-06-14T08:20:03;37.70;52.30
43581;DHT22;29175;51.030;4.606;2023-06-14T08:22:31;37.10;52.90
43581;DHT22;29175;51.030;4.606;2023-06-14T08:25:00;37.40;52.50
43581;DHT22;29175;51.030;4.606;2023-06-14T08:27:27;37.40;53.00
43581;DHT22;29175;51.030;4.606;2023-06-14T08:29:53;36.80;53.60
43581;DHT22;29175;51.030;4.606;2023-06-14T08:32:19;36.50;54.30
43581;DHT22;29175;51.030;4.606;2023-06-14T08:34:44;38.10;53.60
43581;DHT22;29175;51.030;4.606;2023-06-14T08:37:10;39.40;51.20
43581;DHT22;29175;51.030;4.606;2023-06-14T08:39:36;38.80;50.90
43581;DHT22;29175;51.030;4.606;2023-06-14T08:42:02;36.40;51.90
43581;DHT22;29175;51.030;4.606;2023-06-14T08:44:29;35.00;55.00
43581;DHT22;29175;51.030;4.606;2023-06-14T08:46:59;36.50;53.70
43581;DHT22;29175;51.030;4.606;2023-06-14T08:49:26;38.30;51.40
43581;DHT22;29175;51.030;4.606;2023-06-14T08:52:00;38.60;51.00
43581;DHT22;29175;51.030;4.606;2023-06-14T08:54:28;38.80;50.40
43581;DHT22;29175;51.030;4.606;2023-06-14T08:56:57;37.10;53.70
43581;DHT22;29175;51.030;4.606;2023-06-14T08:59:27;36.70;52.20
43581;DHT22;29175;51.030;4.606;2023-06-14T09:01:53;37.10;52.30
43581;DHT22;29175;51.030;4.606;2023-06-14T09:04:23;38.30;50.60
43581;DHT22;29175;51.030;4.606;2023-06-14T09:06:55;39.00;50.50
43581;DHT22;29175;51.030;4.606;2023-06-14T09:09:22;37.20;50.30
43581;DHT22;29175;51.030;4.606;2023-06-14T09:11:51;37.40;51.50
43581;DHT22;29175;51.030;4.606;2023-06-14T09:14:21;38.90;50.00
43581;DHT22;29175;51.030;4.606;2023-06-14T09:16:47;36.80;51.80
43581;DHT22;29175;51.030;4.606;2023-06-14T09:19:24;36.50;52.60
43581;DHT22;29175;51.030;4.606;2023-06-14T09:21:50;37.10;51.20
43581;DHT22;29175;51.030;4.606;2023-06-14T09:24:18;37.80;50.70
43581;DHT22;29175;51.030;4.606;2023-06-14T09:26:47;34.90;54.60
43581;DHT22;29175;51.030;4.606;2023-06-14T09:29:12;37.70;52.30
43581;DHT22;29175;51.030;4.606;2023-06-14T09:31:38;38.80;51.10
43581;DHT22;29175;51.030;4.606;2023-06-14T09:34:05;37.10;51.30
43581;DHT22;29175;51.030;4.606;2023-06-14T09:36:31;36.40;51.30
43581;DHT22;29175;51.030;4.606;2023-06-14T09:38:59;36.50;51.30
43581;DHT22;29175;51.030;4.606;2023-06-14T09:44:02;36.90;50.60
43581;DHT22;29175;51.030;4.606;2023-06-14T09:46:28;37.50;50.70
43581;DHT22;29175;51.030;4.606;2023-06-14T09:48:57;38.20;49.30
43581;DHT22;29175;51.030;4.606;2023-06-14T09:51:23;38.90;48.00
43581;DHT22;29175;51.030;4.606;2023-06-14T09:53:50;37.40;49.70
43581;DHT22;29175;51.030;4.606;2023-06-14T09:58:48;39.60;47.90
43581;DHT22;29175;51.030;4.606;2023-06-14T10:01:16;40.00;47.00
43581;DHT22;29175;51.030;4.606;2023-06-14T10:03:44;39.00;47.90
43581;DHT22;29175;51.030;4.606;2023-06-14T10:06:11;36.10;49.70
43581;DHT22;29175;51.030;4.606;2023-06-14T10:08:38;36.00;50.60
43581;DHT22;29175;51.030;4.606;2023-06-14T10:11:04;37.80;48.60
43581;DHT22;29175;51.030;4.606;2023-06-14T10:13:32;38.60;47.70
43581;DHT22;29175;51.030;4.606;2023-06-14T10:16:18;36.90;49.90
43581;DHT22;29175;51.030;4.606;2023-06-14T10:18:53;38.80;48.40
43581;DHT22;29175;51.030;4.606;2023-06-14T10:21:54;40.30;47.40
43581;DHT22;29175;51.030;4.606;2023-06-14T10:24:29;39.40;46.60
43581;DHT22;29175;51.030;4.606;2023-06-14T10:26:58;38.80;48.80
43581;DHT22;29175;51.030;4.606;2023-06-14T10:29:24;40.10;47.70
43581;DHT22;29175;51.030;4.606;2023-06-14T10:31:53;40.40;46.30
43581;DHT22;29175;51.030;4.606;2023-06-14T10:34:28;39.70;46.30
43581;DHT22;29175;51.030;4.606;2023-06-14T10:37:11;41.20;46.10
43581;DHT22;29175;51.030;4.606;2023-06-14T10:39:41;38.50;47.30
43581;DHT22;29175;51.030;4.606;2023-06-14T10:42:08;37.00;49.10
43581;DHT22;29175;51.030;4.606;2023-06-14T10:44:41;37.60;48.80
43581;DHT22;29175;51.030;4.606;2023-06-14T10:47:10;37.50;47.50
43581;DHT22;29175;51.030;4.606;2023-06-14T10:49:38;38.90;46.90
43581;DHT22;29175;51.030;4.606;2023-06-14T10:52:12;36.80;48.60
43581;DHT22;29175;51.030;4.606;2023-06-14T10:57:36;38.90;46.70
43581;DHT22;29175;51.030;4.606;2023-06-14T11:00:03;39.60;46.10
43581;DHT22;29175;51.030;4.606;2023-06-14T11:03:16;39.20;46.90
43581;DHT22;29175;51.030;4.606;2023-06-14T11:05:54;39.30;46.00
43581;DHT22;29175;51.030;4.606;2023-06-14T11:11:08;41.20;45.10
43581;DHT22;29175;51.030;4.606;2023-06-14T11:13:37;41.30;44.80
43581;DHT22;29175;51.030;4.606;2023-06-14T11:16:10;41.00;44.60
43581;DHT22;29175;51.030;4.606;2023-06-14T11:18:37;39.80;44.80
43581;DHT22;29175;51.030;4.606;2023-06-14T11:21:02;39.30;45.90
43581;DHT22;29175;51.030;4.606;2023-06-14T11:23:28;39.30;46.20
43581;DHT22;29175;51.030;4.606;2023-06-14T11:25:54;37.70;47.00
43581;DHT22;29175;51.030;4.606;2023-06-14T11:28:20;36.90;47.80
43581;DHT22;29175;51.030;4.606;2023-06-14T11:30:48;36.30;47.30
43581;DHT22;29175;51.030;4.606;2023-06-14T11:33:17;36.60;48.90
43581;DHT22;29175;51.030;4.606;2023-06-14T11:35:46;37.30;47.80
43581;DHT22;29175;51.030;4.606;2023-06-14T11:38:12;35.70;49.70
43581;DHT22;29175;51.030;4.606;2023-06-14T11:40:38;36.80;47.70
43581;DHT22;29175;51.030;4.606;2023-06-14T11:43:04;37.20;47.80
43581;DHT22;29175;51.030;4.606;2023-06-14T11:45:30;36.10;48.10
43581;DHT22;29175;51.030;4.606;2023-06-14T11:47:57;35.40;48.90
43581;DHT22;29175;51.030;4.606;2023-06-14T11:50:23;36.50;48.40
43581;DHT22;29175;51.030;4.606;2023-06-14T11:52:54;36.90;48.20
43581;DHT22;29175;51.030;4.606;2023-06-14T11:55:21;36.20;48.10
43581;DHT22;29175;51.030;4.606;2023-06-14T11:57:47;36.00;47.90
43581;DHT22;29175;51.030;4.606;2023-06-14T12:00:13;36.10;49.40
43581;DHT22;29175;51.030;4.606;2023-06-14T12:02:41;34.10;50.80
43581;DHT22;29175;51.030;4.606;2023-06-14T12:05:07;32.40;52.00
43581;DHT22;29175;51.030;4.606;2023-06-14T12:07:36;30.90;53.00
43581;DHT22;29175;51.030;4.606;2023-06-14T12:12:34;31.80;53.20
43581;DHT22;29175;51.030;4.606;2023-06-14T12:14:59;32.00;52.70
43581;DHT22;29175;51.030;4.606;2023-06-14T12:17:35;30.70;53.90
43581;DHT22;29175;51.030;4.606;2023-06-14T12:20:12;30.00;55.10
43581;DHT22;29175;51.030;4.606;2023-06-14T12:22:56;28.70;55.00
43581;DHT22;29175;51.030;4.606;2023-06-14T12:25:30;28.60;56.40
43581;DHT22;29175;51.030;4.606;2023-06-14T12:28:04;28.70;56.00
43581;DHT22;29175;51.030;4.606;2023-06-14T12:30:31;28.80;56.20
43581;DHT22;29175;51.030;4.606;2023-06-14T12:32:57;29.10;55.60
43581;DHT22;29175;51.030;4.606;2023-06-14T12:35:22;28.50;55.60
43581;DHT22;29175;51.030;4.606;2023-06-14T12:37:48;28.80;55.30
43581;DHT22;29175;51.030;4.606;2023-06-14T12:40:14;28.90;54.70
43581;DHT22;29175;51.030;4.606;2023-06-14T12:42:40;29.00;55.90
43581;DHT22;29175;51.030;4.606;2023-06-14T12:45:06;28.50;55.50
43581;DHT22;29175;51.030;4.606;2023-06-14T12:47:32;28.30;54.50
43581;DHT22;29175;51.030;4.606;2023-06-14T12:49:58;28.50;55.10
43581;DHT22;29175;51.030;4.606;2023-06-14T12:52:23;28.70;55.60
43581;DHT22;29175;51.030;4.606;2023-06-14T12:54:49;28.80;55.50
43581;DHT22;29175;51.030;4.606;2023-06-14T12:57:15;28.30;55.70
43581;DHT22;29175;51.030;4.606;2023-06-14T12:59:41;28.10;56.20
43581;DHT22;29175;51.030;4.606;2023-06-14T13:02:14;28.20;56.50
43581;DHT22;29175;51.030;4.606;2023-06-14T13:04:40;27.90;55.30
43581;DHT22;29175;51.030;4.606;2023-06-14T13:07:06;28.20;55.40
43581;DHT22;29175;51.030;4.606;2023-06-14T13:09:31;28.60;55.50
43581;DHT22;29175;51.030;4.606;2023-06-14T13:11:57;28.80;54.90
43581;DHT22;29175;51.030;4.606;2023-06-14T13:14:23;28.90;55.70
43581;DHT22;29175;51.030;4.606;2023-06-14T13:16:49;29.30;54.30
43581;DHT22;29175;51.030;4.606;2023-06-14T13:19:14;29.10;56.00
43581;DHT22;29175;51.030;4.606;2023-06-14T13:21:40;28.50;54.40
43581;DHT22;29175;51.030;4.606;2023-06-14T13:24:06;28.90;55.20
43581;DHT22;29175;51.030;4.606;2023-06-14T13:26:33;28.80;53.70
43581;DHT22;29175;51.030;4.606;2023-06-14T13:28:59;28.80;54.40
43581;DHT22;29175;51.030;4.606;2023-06-14T13:31:24;28.70;53.60
43581;DHT22;29175;51.030;4.606;2023-06-14T13:33:50;28.80;54.00
43581;DHT22;29175;51.030;4.606;2023-06-14T13:36:16;29.10;53.70
43581;DHT22;29175;51.030;4.606;2023-06-14T13:38:42;28.70;52.40
43581;DHT22;29175;51.030;4.606;2023-06-14T13:41:07;28.20;53.90
43581;DHT22;29175;51.030;4.606;2023-06-14T13:43:33;28.40;53.50
43581;DHT22;29175;51.030;4.606;2023-06-14T13:45:59;28.90;53.20
43581;DHT22;29175;51.030;4.606;2023-06-14T13:48:24;28.50;53.00
43581;DHT22;29175;51.030;4.606;2023-06-14T13:50:50;28.50;53.20
43581;DHT22;29175;51.030;4.606;2023-06-14T13:53:16;28.50;54.20
43581;DHT22;29175;51.030;4.606;2023-06-14T13:55:41;28.50;54.40
43581;DHT22;29175;51.030;4.606;2023-06-14T13:58:07;27.90;54.50
43581;DHT22;29175;51.030;4.606;2023-06-14T14:00:33;27.80;55.40
43581;DHT22;29175;51.030;4.606;2023-06-14T14:03:02;28.20;54.80
43581;DHT22;29175;51.030;4.606;2023-06-14T14:05:29;28.40;55.60
43581;DHT22;29175;51.030;4.606;2023-06-14T14:07:56;28.20;55.40
43581;DHT22;29175;51.030;4.606;2023-06-14T14:10:23;28.30;54.60
43581;DHT22;29175;51.030;4.606;2023-06-14T14:12:50;28.30;54.10
43581;DHT22;29175;51.030;4.606;2023-06-14T14:15:17;28.30;54.30
43581;DHT22;29175;51.030;4.606;2023-06-14T14:17:42;28.30;54.50
43581;DHT22;29175;51.030;4.606;2023-06-14T14:20:09;28.40;54.90
43581;DHT22;29175;51.030;4.606;2023-06-14T14:22:35;28.10;54.50
43581;DHT22;29175;51.030;4.606;2023-06-14T14:25:00;28.10;55.10
43581;DHT22;29175;51.030;4.606;2023-06-14T14:27:26;28.30;55.10
43581;DHT22;29175;51.030;4.606;2023-06-14T14:29:52;27.90;55.70
43581;DHT22;29175;51.030;4.606;2023-06-14T14:32:17;27.60;57.30
43581;DHT22;29175;51.030;4.606;2023-06-14T14:34:43;27.90;56.40
43581;DHT22;29175;51.030;4.606;2023-06-14T14:37:09;27.90;55.60
43581;DHT22;29175;51.030;4.606;2023-06-14T14:39:36;27.60;57.20
43581;DHT22;29175;51.030;4.606;2023-06-14T14:42:02;27.50;56.50
43581;DHT22;29175;51.030;4.606;2023-06-14T14:44:28;27.70;57.50
43581;DHT22;29175;51.030;4.606;2023-06-14T14:46:53;27.90;57.40
43581;DHT22;29175;51.030;4.606;2023-06-14T14:49:20;28.30;56.30
43581;DHT22;29175;51.030;4.606;2023-06-14T14:51:46;28.50;55.30
43581;DHT22;29175;51.030;4.606;2023-06-14T14:54:11;28.20;54.80
43581;DHT22;29175;51.030;4.606;2023-06-14T14:56:37;27.90;55.30
43581;DHT22;29175;51.030;4.606;2023-06-14T14:59:04;27.90;55.40
43581;DHT22;29175;51.030;4.606;2023-06-14T15:01:29;27.80;55.40
43581;DHT22;29175;51.030;4.606;2023-06-14T15:03:55;28.00;55.60
43581;DHT22;29175;51.030;4.606;2023-06-14T15:06:21;27.60;55.50
43581;DHT22;29175;51.030;4.606;2023-06-14T15:08:46;27.60;56.40
43581;DHT22;29175;51.030;4.606;2023-06-14T15:11:12;27.70;56.20
43581;DHT22;29175;51.030;4.606;2023-06-14T15:13:38;27.90;57.20
43581;DHT22;29175;51.030;4.606;2023-06-14T15:16:03;27.90;57.00
43581;DHT22;29175;51.030;4.606;2023-06-14T15:18:29;27.90;56.00
43581;DHT22;29175;51.030;4.606;2023-06-14T15:20:55;27.70;55.70
43581;DHT22;29175;51.030;4.606;2023-06-14T15:23:22;27.90;57.10
43581;DHT22;29175;51.030;4.606;2023-06-14T15:25:48;27.90;55.90
43581;DHT22;29175;51.030;4.606;2023-06-14T15:28:14;28.10;56.40
43581;DHT22;29175;51.030;4.606;2023-06-14T15:30:40;28.30;55.40
43581;DHT22;29175;51.030;4.606;2023-06-14T15:33:06;28.00;56.20
43581;DHT22;29175;51.030;4.606;2023-06-14T15:35:32;27.80;55.70
43581;DHT22;29175;51.030;4.606;2023-06-14T15:37:57;27.80;56.00
43581;DHT22;29175;51.030;4.606;2023-06-14T15:40:23;27.80;55.60
43581;DHT22;29175;51.030;4.606;2023-06-14T15:42:49;27.50;56.30
43581;DHT22;29175;51.030;4.606;2023-06-14T15:45:15;27.30;57.70
43581;DHT22;29175;51.030;4.606;2023-06-14T15:47:41;27.40;57.60
43581;DHT22;29175;51.030;4.606;2023-06-14T15:50:07;27.30;57.00